sensor_id;sensor_type;location;lat;lon;timestamp;P1;durP1;ratioP1;P2;durP2;ratioP2
75061;SDS011;63641;46.526;24.612;2023-09-07T00:04:52;5.20;;;4.28;;
75061;SDS011;63641;46.526;24.612;2023-09-07T00:07:20;4.13;;;3.63;;
75061;SDS011;63641;46.526;24.612;2023-09-07T00:09:46;7.05;;;4.30;;
75061;SDS011;63641;46.526;24.612;2023-09-07T00:12:13;4.95;;;4.20;;
75061;SDS011;63641;46.526;24.612;2023-09-07T00:14:40;4.53;;;4.10;;
75061;SDS011;63641;46.526;24.612;2023-09-07T00:17:06;5.00;;;4.38;;
75061;SDS011;63641;46.526;24.612;2023-09-07T00:19:33;5.65;;;4.35;;
75061;SDS011;63641;46.526;24.612;2023-09-07T00:22:03;5.45;;;3.83;;
75061;SDS011;63641;46.526;24.612;2023-09-07T00:24:30;8.43;;;4.28;;
75061;SDS011;63641;46.526;24.612;2023-09-07T00:27:00;5.63;;;4.00;;
75061;SDS011;63641;46.526;24.612;2023-09-07T00:29:26;4.63;;;4.00;;
75061;SDS011;63641;46.526;24.612;2023-09-07T00:31:53;4.57;;;4.03;;
75061;SDS011;63641;46.526;24.612;2023-09-07T00:34:20;7.05;;;4.32;;
75061;SDS011;63641;46.526;24.612;2023-09-07T00:36:47;7.10;;;4.30;;
75061;SDS011;63641;46.526;24.612;2023-09-07T00:39:14;5.63;;;4.60;;
75061;SDS011;63641;46.526;24.612;2023-09-07T00:41:40;5.68;;;4.22;;
75061;SDS011;63641;46.526;24.612;2023-09-07T00:44:07;5.15;;;4.13;;
75061;SDS011;63641;46.526;24.612;2023-09-07T00:46:34;4.78;;;4.28;;
75061;SDS011;63641;46.526;24.612;2023-09-07T00:49:00;5.10;;;4.25;;
75061;SDS011;63641;46.526;24.612;2023-09-07T00:51:27;5.55;;;4.40;;
75061;SDS011;63641;46.526;24.612;2023-09-07T00:53:54;5.53;;;3.90;;
75061;SDS011;63641;46.526;24.612;2023-09-07T00:56:21;4.72;;;3.70;;
75061;SDS011;63641;46.526;24.612;2023-09-07T00:58:48;4.25;;;3.40;;
75061;SDS011;63641;46.526;24.612;2023-09-07T01:01:15;4.40;;;4.00;;
75061;SDS011;63641;46.526;24.612;2023-09-07T01:03:42;5.18;;;4.47;;
75061;SDS011;63641;46.526;24.612;2023-09-07T01:06:13;5.65;;;3.97;;
75061;SDS011;63641;46.526;24.612;2023-09-07T01:08:54;4.93;;;4.13;;
75061;SDS011;63641;46.526;24.612;2023-09-07T01:11:23;4.03;;;3.63;;
75061;SDS011;63641;46.526;24.612;2023-09-07T01:13:50;5.07;;;3.63;;
75061;SDS011;63641;46.526;24.612;2023-09-07T01:16:20;4.60;;;4.10;;
75061;SDS011;63641;46.526;24.612;2023-09-07T01:18:48;4.38;;;3.95;;
75061;SDS011;63641;46.526;24.612;2023-09-07T01:21:16;3.95;;;3.50;;
75061;SDS011;63641;46.526;24.612;2023-09-07T01:23:44;4.07;;;3.67;;
75061;SDS011;63641;46.526;24.612;2023-09-07T01:26:12;4.47;;;3.78;;
75061;SDS011;63641;46.526;24.612;2023-09-07T01:28:39;6.00;;;4.18;;
75061;SDS011;63641;46.526;24.612;2023-09-07T01:31:05;7.13;;;4.00;;
75061;SDS011;63641;46.526;24.612;2023-09-07T01:33:33;4.20;;;3.80;;
75061;SDS011;63641;46.526;24.612;2023-09-07T01:35:59;4.35;;;3.58;;
75061;SDS011;63641;46.526;24.612;2023-09-07T01:38:26;4.80;;;3.60;;
75061;SDS011;63641;46.526;24.612;2023-09-07T01:40:53;4.53;;;4.10;;
75061;SDS011;63641;46.526;24.612;2023-09-07T01:43:20;6.20;;;3.78;;
75061;SDS011;63641;46.526;24.612;2023-09-07T01:45:47;4.00;;;3.58;;
75061;SDS011;63641;46.526;24.612;2023-09-07T01:48:14;4.20;;;3.50;;
75061;SDS011;63641;46.526;24.612;2023-09-07T01:50:41;5.22;;;3.88;;
75061;SDS011;63641;46.526;24.612;2023-09-07T01:53:07;3.97;;;3.67;;
75061;SDS011;63641;46.526;24.612;2023-09-07T01:55:34;4.10;;;3.45;;
75061;SDS011;63641;46.526;24.612;2023-09-07T01:58:01;3.85;;;3.40;;
75061;SDS011;63641;46.526;24.612;2023-09-07T02:00:28;4.15;;;3.75;;
75061;SDS011;63641;46.526;24.612;2023-09-07T02:02:55;4.90;;;3.40;;
75061;SDS011;63641;46.526;24.612;2023-09-07T02:05:21;4.38;;;3.72;;
75061;SDS011;63641;46.526;24.612;2023-09-07T02:07:48;4.55;;;3.67;;
75061;SDS011;63641;46.526;24.612;2023-09-07T02:10:18;5.38;;;4.13;;
75061;SDS011;63641;46.526;24.612;2023-09-07T02:12:45;5.25;;;3.70;;
75061;SDS011;63641;46.526;24.612;2023-09-07T02:15:13;6.55;;;3.70;;
75061;SDS011;63641;46.526;24.612;2023-09-07T02:17:39;3.70;;;3.33;;
75061;SDS011;63641;46.526;24.612;2023-09-07T02:20:06;5.30;;;3.70;;
75061;SDS011;63641;46.526;24.612;2023-09-07T02:22:37;3.80;;;3.47;;
75061;SDS011;63641;46.526;24.612;2023-09-07T02:25:05;4.70;;;3.50;;
75061;SDS011;63641;46.526;24.612;2023-09-07T02:27:32;5.95;;;3.78;;
75061;SDS011;63641;46.526;24.612;2023-09-07T02:30:00;5.00;;;3.70;;
75061;SDS011;63641;46.526;24.612;2023-09-07T02:32:28;4.30;;;3.65;;
75061;SDS011;63641;46.526;24.612;2023-09-07T02:34:55;6.30;;;3.80;;
75061;SDS011;63641;46.526;24.612;2023-09-07T02:37:22;4.00;;;3.60;;
75061;SDS011;63641;46.526;24.612;2023-09-07T02:39:49;5.55;;;3.70;;
75061;SDS011;63641;46.526;24.612;2023-09-07T02:42:15;4.53;;;3.58;;
75061;SDS011;63641;46.526;24.612;2023-09-07T02:44:42;4.32;;;3.40;;
75061;SDS011;63641;46.526;24.612;2023-09-07T02:47:09;5.03;;;3.53;;
75061;SDS011;63641;46.526;24.612;2023-09-07T02:49:38;4.25;;;3.65;;
75061;SDS011;63641;46.526;24.612;2023-09-07T02:52:05;4.35;;;3.95;;
75061;SDS011;63641;46.526;24.612;2023-09-07T02:54:31;5.30;;;3.50;;
75061;SDS011;63641;46.526;24.612;2023-09-07T02:56:58;4.75;;;3.15;;
75061;SDS011;63641;46.526;24.612;2023-09-07T02:59:25;4.07;;;3.67;;
75061;SDS011;63641;46.526;24.612;2023-09-07T03:01:52;4.30;;;3.40;;
75061;SDS011;63641;46.526;24.612;2023-09-07T03:04:19;4.05;;;3.65;;
75061;SDS011;63641;46.526;24.612;2023-09-07T03:06:45;3.80;;;3.40;;
75061;SDS011;63641;46.526;24.612;2023-09-07T03:09:12;4.00;;;3.60;;
75061;SDS011;63641;46.526;24.612;2023-09-07T03:11:40;4.22;;;3.67;;
75061;SDS011;63641;46.526;24.612;2023-09-07T03:14:07;4.40;;;3.53;;
75061;SDS011;63641;46.526;24.612;2023-09-07T03:16:34;4.93;;;3.63;;
75061;SDS011;63641;46.526;24.612;2023-09-07T03:19:01;5.10;;;3.80;;
75061;SDS011;63641;46.526;24.612;2023-09-07T03:21:28;5.70;;;3.85;;
75061;SDS011;63641;46.526;24.612;2023-09-07T03:23:56;4.68;;;3.72;;
75061;SDS011;63641;46.526;24.612;2023-09-07T03:26:24;4.38;;;3.50;;
75061;SDS011;63641;46.526;24.612;2023-09-07T03:28:51;4.32;;;3.90;;
75061;SDS011;63641;46.526;24.612;2023-09-07T03:31:18;4.35;;;3.67;;
75061;SDS011;63641;46.526;24.612;2023-09-07T03:33:45;4.35;;;3.30;;
75061;SDS011;63641;46.526;24.612;2023-09-07T03:36:12;5.60;;;3.75;;
75061;SDS011;63641;46.526;24.612;2023-09-07T03:38:42;4.38;;;3.83;;
75061;SDS011;63641;46.526;24.612;2023-09-07T03:41:09;4.07;;;3.53;;
75061;SDS011;63641;46.526;24.612;2023-09-07T03:43:36;5.30;;;3.72;;
75061;SDS011;63641;46.526;24.612;2023-09-07T03:46:03;3.97;;;3.58;;
75061;SDS011;63641;46.526;24.612;2023-09-07T03:48:30;4.05;;;3.40;;
75061;SDS011;63641;46.526;24.612;2023-09-07T03:50:57;3.78;;;3.47;;
75061;SDS011;63641;46.526;24.612;2023-09-07T03:53:24;3.95;;;3.55;;
75061;SDS011;63641;46.526;24.612;2023-09-07T03:55:51;3.72;;;3.33;;
75061;SDS011;63641;46.526;24.612;2023-09-07T03:58:18;3.92;;;3.53;;
75061;SDS011;63641;46.526;24.612;2023-09-07T04:00:45;3.80;;;3.40;;
75061;SDS011;63641;46.526;24.612;2023-09-07T04:03:12;3.90;;;3.47;;
75061;SDS011;63641;46.526;24.612;2023-09-07T04:05:39;4.82;;;3.78;;
75061;SDS011;63641;46.526;24.612;2023-09-07T04:08:06;4.47;;;3.92;;
75061;SDS011;63641;46.526;24.612;2023-09-07T04:10:36;3.70;;;3.40;;
75061;SDS011;63641;46.526;24.612;2023-09-07T04:13:04;6.88;;;4.20;;
75061;SDS011;63641;46.526;24.612;2023-09-07T04:15:42;4.35;;;3.72;;
75061;SDS011;63641;46.526;24.612;2023-09-07T04:18:11;5.93;;;4.53;;
75061;SDS011;63641;46.526;24.612;2023-09-07T04:20:39;5.10;;;3.42;;
75061;SDS011;63641;46.526;24.612;2023-09-07T04:23:06;4.82;;;3.90;;
75061;SDS011;63641;46.526;24.612;2023-09-07T04:25:33;3.95;;;3.58;;
75061;SDS011;63641;46.526;24.612;2023-09-07T04:27:59;3.97;;;3.58;;
75061;SDS011;63641;46.526;24.612;2023-09-07T04:30:26;4.03;;;3.58;;
75061;SDS011;63641;46.526;24.612;2023-09-07T04:32:53;4.35;;;3.60;;
75061;SDS011;63641;46.526;24.612;2023-09-07T04:35:20;4.70;;;4.20;;
75061;SDS011;63641;46.526;24.612;2023-09-07T04:37:47;4.20;;;3.80;;
75061;SDS011;63641;46.526;24.612;2023-09-07T04:40:14;4.85;;;4.40;;
75061;SDS011;63641;46.526;24.612;2023-09-07T04:42:40;5.38;;;4.60;;
75061;SDS011;63641;46.526;24.612;2023-09-07T04:45:07;4.97;;;4.53;;
75061;SDS011;63641;46.526;24.612;2023-09-07T04:47:34;4.90;;;4.40;;
75061;SDS011;63641;46.526;24.612;2023-09-07T04:50:03;6.82;;;4.82;;
75061;SDS011;63641;46.526;24.612;2023-09-07T04:52:31;5.30;;;4.30;;
75061;SDS011;63641;46.526;24.612;2023-09-07T04:54:57;4.90;;;4.32;;
75061;SDS011;63641;46.526;24.612;2023-09-07T04:57:24;4.40;;;4.00;;
75061;SDS011;63641;46.526;24.612;2023-09-07T04:59:51;4.47;;;4.07;;
75061;SDS011;63641;46.526;24.612;2023-09-07T05:02:17;4.28;;;3.88;;
75061;SDS011;63641;46.526;24.612;2023-09-07T05:04:44;4.60;;;4.20;;
75061;SDS011;63641;46.526;24.612;2023-09-07T05:07:11;5.95;;;4.32;;
75061;SDS011;63641;46.526;24.612;2023-09-07T05:09:38;4.47;;;3.83;;
75061;SDS011;63641;46.526;24.612;2023-09-07T05:12:05;4.47;;;3.90;;
75061;SDS011;63641;46.526;24.612;2023-09-07T05:14:32;5.57;;;4.72;;
75061;SDS011;63641;46.526;24.612;2023-09-07T05:16:59;4.82;;;4.32;;
75061;SDS011;63641;46.526;24.612;2023-09-07T05:19:26;8.02;;;4.90;;
75061;SDS011;63641;46.526;24.612;2023-09-07T05:21:53;5.97;;;5.18;;
75061;SDS011;63641;46.526;24.612;2023-09-07T05:24:19;5.00;;;4.50;;
75061;SDS011;63641;46.526;24.612;2023-09-07T05:26:46;5.57;;;5.05;;
75061;SDS011;63641;46.526;24.612;2023-09-07T05:29:13;5.50;;;5.00;;
75061;SDS011;63641;46.526;24.612;2023-09-07T05:31:42;5.95;;;5.35;;
75061;SDS011;63641;46.526;24.612;2023-09-07T05:34:09;5.65;;;5.15;;
75061;SDS011;63641;46.526;24.612;2023-09-07T05:36:36;6.70;;;5.47;;
75061;SDS011;63641;46.526;24.612;2023-09-07T05:39:02;5.32;;;4.82;;
75061;SDS011;63641;46.526;24.612;2023-09-07T05:41:30;5.90;;;5.35;;
75061;SDS011;63641;46.526;24.612;2023-09-07T05:43:57;6.25;;;4.70;;
75061;SDS011;63641;46.526;24.612;2023-09-07T05:46:23;7.10;;;5.22;;
75061;SDS011;63641;46.526;24.612;2023-09-07T05:48:50;5.78;;;5.18;;
75061;SDS011;63641;46.526;24.612;2023-09-07T05:51:17;5.80;;;5.20;;
75061;SDS011;63641;46.526;24.612;2023-09-07T05:53:44;6.25;;;5.00;;
75061;SDS011;63641;46.526;24.612;2023-09-07T05:56:11;7.18;;;5.28;;
75061;SDS011;63641;46.526;24.612;2023-09-07T05:58:37;5.88;;;5.25;;
75061;SDS011;63641;46.526;24.612;2023-09-07T06:01:04;5.60;;;4.90;;
75061;SDS011;63641;46.526;24.612;2023-09-07T06:03:32;7.38;;;5.53;;
75061;SDS011;63641;46.526;24.612;2023-09-07T06:06:01;6.22;;;5.63;;
75061;SDS011;63641;46.526;24.612;2023-09-07T06:08:28;7.10;;;6.40;;
75061;SDS011;63641;46.526;24.612;2023-09-07T06:10:56;6.45;;;5.65;;
75061;SDS011;63641;46.526;24.612;2023-09-07T06:13:23;6.50;;;5.90;;
75061;SDS011;63641;46.526;24.612;2023-09-07T06:15:50;6.15;;;4.82;;
75061;SDS011;63641;46.526;24.612;2023-09-07T06:18:17;6.15;;;5.55;;
75061;SDS011;63641;46.526;24.612;2023-09-07T06:20:43;5.30;;;4.80;;
75061;SDS011;63641;46.526;24.612;2023-09-07T06:23:14;6.13;;;5.55;;
75061;SDS011;63641;46.526;24.612;2023-09-07T06:25:41;5.82;;;5.22;;
75061;SDS011;63641;46.526;24.612;2023-09-07T06:28:07;6.15;;;5.55;;
75061;SDS011;63641;46.526;24.612;2023-09-07T06:30:34;7.82;;;5.60;;
75061;SDS011;63641;46.526;24.612;2023-09-07T06:33:00;5.57;;;5.05;;
75061;SDS011;63641;46.526;24.612;2023-09-07T06:35:27;7.45;;;5.57;;
75061;SDS011;63641;46.526;24.612;2023-09-07T06:37:54;6.57;;;5.97;;
75061;SDS011;63641;46.526;24.612;2023-09-07T06:40:22;5.93;;;5.40;;
75061;SDS011;63641;46.526;24.612;2023-09-07T06:42:49;5.97;;;5.47;;
75061;SDS011;63641;46.526;24.612;2023-09-07T06:45:15;4.80;;;4.32;;
75061;SDS011;63641;46.526;24.612;2023-09-07T06:47:48;5.28;;;4.78;;
75061;SDS011;63641;46.526;24.612;2023-09-07T06:50:16;5.20;;;4.70;;
75061;SDS011;63641;46.526;24.612;2023-09-07T06:52:43;5.15;;;4.65;;
75061;SDS011;63641;46.526;24.612;2023-09-07T06:55:10;5.65;;;4.50;;
75061;SDS011;63641;46.526;24.612;2023-09-07T06:57:37;5.63;;;4.60;;
75061;SDS011;63641;46.526;24.612;2023-09-07T07:00:03;4.72;;;4.22;;
75061;SDS011;63641;46.526;24.612;2023-09-07T07:02:34;4.60;;;4.13;;
75061;SDS011;63641;46.526;24.612;2023-09-07T07:05:01;3.97;;;3.50;;
75061;SDS011;63641;46.526;24.612;2023-09-07T07:07:29;4.72;;;4.30;;
75061;SDS011;63641;46.526;24.612;2023-09-07T07:09:57;6.20;;;4.38;;
75061;SDS011;63641;46.526;24.612;2023-09-07T07:12:24;4.00;;;3.60;;
75061;SDS011;63641;46.526;24.612;2023-09-07T07:14:52;5.95;;;3.63;;
75061;SDS011;63641;46.526;24.612;2023-09-07T07:17:19;5.65;;;3.80;;
75061;SDS011;63641;46.526;24.612;2023-09-07T07:19:46;4.60;;;4.13;;
75061;SDS011;63641;46.526;24.612;2023-09-07T07:22:12;5.80;;;4.63;;
75061;SDS011;63641;46.526;24.612;2023-09-07T07:24:40;3.63;;;3.33;;
75061;SDS011;63641;46.526;24.612;2023-09-07T07:27:06;4.75;;;3.63;;
75061;SDS011;63641;46.526;24.612;2023-09-07T07:29:33;4.60;;;3.47;;
75061;SDS011;63641;46.526;24.612;2023-09-07T07:32:00;3.90;;;3.47;;
75061;SDS011;63641;46.526;24.612;2023-09-07T07:34:26;4.68;;;3.90;;
75061;SDS011;63641;46.526;24.612;2023-09-07T07:36:53;4.97;;;3.97;;
75061;SDS011;63641;46.526;24.612;2023-09-07T07:39:20;4.20;;;3.80;;
75061;SDS011;63641;46.526;24.612;2023-09-07T07:41:47;6.68;;;3.45;;
75061;SDS011;63641;46.526;24.612;2023-09-07T07:44:13;6.13;;;3.75;;
75061;SDS011;63641;46.526;24.612;2023-09-07T07:46:40;5.90;;;3.72;;
75061;SDS011;63641;46.526;24.612;2023-09-07T07:49:07;4.00;;;3.53;;
75061;SDS011;63641;46.526;24.612;2023-09-07T07:51:34;4.55;;;3.60;;
75061;SDS011;63641;46.526;24.612;2023-09-07T07:54:00;3.80;;;3.40;;
75061;SDS011;63641;46.526;24.612;2023-09-07T07:56:27;4.13;;;3.28;;
75061;SDS011;63641;46.526;24.612;2023-09-07T07:58:57;3.90;;;3.42;;
75061;SDS011;63641;46.526;24.612;2023-09-07T08:01:24;4.53;;;3.75;;
75061;SDS011;63641;46.526;24.612;2023-09-07T08:03:52;3.95;;;3.40;;
75061;SDS011;63641;46.526;24.612;2023-09-07T08:06:20;5.20;;;3.70;;
75061;SDS011;63641;46.526;24.612;2023-09-07T08:08:47;4.90;;;3.70;;
75061;SDS011;63641;46.526;24.612;2023-09-07T08:11:14;4.43;;;3.95;;
75061;SDS011;63641;46.526;24.612;2023-09-07T08:13:41;3.42;;;3.10;;
75061;SDS011;63641;46.526;24.612;2023-09-07T08:16:07;4.07;;;3.60;;
75061;SDS011;63641;46.526;24.612;2023-09-07T08:18:38;3.92;;;3.10;;
75061;SDS011;63641;46.526;24.612;2023-09-07T08:21:06;3.78;;;3.17;;
75061;SDS011;63641;46.526;24.612;2023-09-07T08:23:33;3.80;;;3.38;;
75061;SDS011;63641;46.526;24.612;2023-09-07T08:25:59;4.25;;;3.25;;
75061;SDS011;63641;46.526;24.612;2023-09-07T08:28:26;5.07;;;4.32;;
75061;SDS011;63641;46.526;24.612;2023-09-07T08:30:54;5.35;;;3.30;;
75061;SDS011;63641;46.526;24.612;2023-09-07T08:33:21;7.50;;;3.42;;
75061;SDS011;63641;46.526;24.612;2023-09-07T08:35:53;4.65;;;3.58;;
75061;SDS011;63641;46.526;24.612;2023-09-07T08:38:21;3.88;;;2.97;;
75061;SDS011;63641;46.526;24.612;2023-09-07T08:40:55;5.32;;;2.97;;
75061;SDS011;63641;46.526;24.612;2023-09-07T08:43:27;3.60;;;3.10;;
75061;SDS011;63641;46.526;24.612;2023-09-07T08:45:58;4.32;;;3.65;;
75061;SDS011;63641;46.526;24.612;2023-09-07T08:48:36;6.97;;;3.00;;
75061;SDS011;63641;46.526;24.612;2023-09-07T08:51:03;4.10;;;3.00;;
75061;SDS011;63641;46.526;24.612;2023-09-07T08:53:32;2.85;;;2.60;;
75061;SDS011;63641;46.526;24.612;2023-09-07T08:56:01;3.25;;;2.95;;
75061;SDS011;63641;46.526;24.612;2023-09-07T08:58:28;4.80;;;3.00;;
75061;SDS011;63641;46.526;24.612;2023-09-07T09:00:55;3.20;;;2.90;;
75061;SDS011;63641;46.526;24.612;2023-09-07T09:03:33;3.13;;;2.83;;
75061;SDS011;63641;46.526;24.612;2023-09-07T09:06:01;3.67;;;2.97;;
75061;SDS011;63641;46.526;24.612;2023-09-07T09:08:29;3.35;;;3.05;;
75061;SDS011;63641;46.526;24.612;2023-09-07T09:11:02;6.85;;;3.38;;
75061;SDS011;63641;46.526;24.612;2023-09-07T09:13:30;3.58;;;2.63;;
75061;SDS011;63641;46.526;24.612;2023-09-07T09:15:59;3.10;;;2.80;;
75061;SDS011;63641;46.526;24.612;2023-09-07T09:18:29;3.03;;;2.53;;
75061;SDS011;63641;46.526;24.612;2023-09-07T09:20:57;3.70;;;2.97;;
75061;SDS011;63641;46.526;24.612;2023-09-07T09:23:32;4.90;;;2.80;;
75061;SDS011;63641;46.526;24.612;2023-09-07T09:26:01;4.50;;;3.05;;
75061;SDS011;63641;46.526;24.612;2023-09-07T09:28:32;5.13;;;2.90;;
75061;SDS011;63641;46.526;24.612;2023-09-07T09:31:00;3.35;;;2.70;;
75061;SDS011;63641;46.526;24.612;2023-09-07T09:33:31;3.05;;;2.75;;
75061;SDS011;63641;46.526;24.612;2023-09-07T09:35:59;3.58;;;2.75;;
75061;SDS011;63641;46.526;24.612;2023-09-07T09:38:27;3.00;;;2.70;;
75061;SDS011;63641;46.526;24.612;2023-09-07T09:40:54;3.60;;;3.30;;
75061;SDS011;63641;46.526;24.612;2023-09-07T09:43:21;3.38;;;2.50;;
75061;SDS011;63641;46.526;24.612;2023-09-07T09:45:48;3.30;;;2.60;;
75061;SDS011;63641;46.526;24.612;2023-09-07T09:48:18;4.97;;;2.60;;
75061;SDS011;63641;46.526;24.612;2023-09-07T09:50:49;2.92;;;2.42;;
75061;SDS011;63641;46.526;24.612;2023-09-07T09:53:17;3.08;;;2.63;;
75061;SDS011;63641;46.526;24.612;2023-09-07T09:55:47;2.95;;;2.65;;
75061;SDS011;63641;46.526;24.612;2023-09-07T09:58:14;3.33;;;2.83;;
75061;SDS011;63641;46.526;24.612;2023-09-07T10:00:42;2.92;;;2.53;;
75061;SDS011;63641;46.526;24.612;2023-09-07T10:05:53;3.42;;;3.13;;
75061;SDS011;63641;46.526;24.612;2023-09-07T10:08:20;3.20;;;2.90;;
75061;SDS011;63641;46.526;24.612;2023-09-07T10:10:52;2.88;;;2.67;;
75061;SDS011;63641;46.526;24.612;2023-09-07T10:13:30;3.10;;;2.80;;
75061;SDS011;63641;46.526;24.612;2023-09-07T10:16:01;3.78;;;2.63;;
75061;SDS011;63641;46.526;24.612;2023-09-07T10:18:37;2.60;;;2.33;;
75061;SDS011;63641;46.526;24.612;2023-09-07T10:21:05;3.03;;;2.75;;
75061;SDS011;63641;46.526;24.612;2023-09-07T10:23:39;3.67;;;2.88;;
75061;SDS011;63641;46.526;24.612;2023-09-07T10:26:14;4.18;;;2.80;;
75061;SDS011;63641;46.526;24.612;2023-09-07T10:28:45;2.50;;;2.30;;
75061;SDS011;63641;46.526;24.612;2023-09-07T10:31:16;3.45;;;3.03;;
75061;SDS011;63641;46.526;24.612;2023-09-07T10:33:44;2.80;;;2.50;;
75061;SDS011;63641;46.526;24.612;2023-09-07T10:36:22;3.25;;;2.92;;
75061;SDS011;63641;46.526;24.612;2023-09-07T10:38:54;3.17;;;2.58;;
75061;SDS011;63641;46.526;24.612;2023-09-07T10:41:22;3.67;;;2.92;;
75061;SDS011;63641;46.526;24.612;2023-09-07T10:46:21;3.95;;;2.67;;
75061;SDS011;63641;46.526;24.612;2023-09-07T10:48:50;3.22;;;2.78;;
75061;SDS011;63641;46.526;24.612;2023-09-07T10:51:18;3.20;;;2.90;;
75061;SDS011;63641;46.526;24.612;2023-09-07T10:53:46;2.88;;;2.50;;
75061;SDS011;63641;46.526;24.612;2023-09-07T10:56:12;2.70;;;2.50;;
75061;SDS011;63641;46.526;24.612;2023-09-07T10:58:39;2.78;;;2.58;;
75061;SDS011;63641;46.526;24.612;2023-09-07T11:01:08;3.90;;;2.78;;
75061;SDS011;63641;46.526;24.612;2023-09-07T11:03:36;4.03;;;3.05;;
75061;SDS011;63641;46.526;24.612;2023-09-07T11:06:06;5.47;;;4.20;;
75061;SDS011;63641;46.526;24.612;2023-09-07T11:08:38;4.55;;;3.10;;
75061;SDS011;63641;46.526;24.612;2023-09-07T11:11:05;3.15;;;2.85;;
75061;SDS011;63641;46.526;24.612;2023-09-07T11:13:32;3.65;;;2.95;;
75061;SDS011;63641;46.526;24.612;2023-09-07T11:16:00;3.70;;;2.80;;
75061;SDS011;63641;46.526;24.612;2023-09-07T11:18:27;3.10;;;2.80;;
75061;SDS011;63641;46.526;24.612;2023-09-07T11:20:53;3.10;;;2.80;;
75061;SDS011;63641;46.526;24.612;2023-09-07T11:23:21;3.10;;;2.80;;
75061;SDS011;63641;46.526;24.612;2023-09-07T11:25:49;4.85;;;3.20;;
75061;SDS011;63641;46.526;24.612;2023-09-07T11:28:19;3.17;;;2.78;;
75061;SDS011;63641;46.526;24.612;2023-09-07T11:30:52;3.65;;;2.75;;
75061;SDS011;63641;46.526;24.612;2023-09-07T11:33:20;3.50;;;2.75;;
75061;SDS011;63641;46.526;24.612;2023-09-07T11:35:49;4.60;;;2.70;;
75061;SDS011;63641;46.526;24.612;2023-09-07T11:38:17;2.95;;;2.70;;
75061;SDS011;63641;46.526;24.612;2023-09-07T11:40:44;3.38;;;2.92;;
75061;SDS011;63641;46.526;24.612;2023-09-07T11:43:12;3.95;;;2.50;;
75061;SDS011;63641;46.526;24.612;2023-09-07T11:45:42;3.13;;;2.78;;
75061;SDS011;63641;46.526;24.612;2023-09-07T11:48:10;2.88;;;2.67;;
75061;SDS011;63641;46.526;24.612;2023-09-07T11:50:37;2.90;;;2.70;;
75061;SDS011;63641;46.526;24.612;2023-09-07T11:53:05;2.58;;;2.38;;
75061;SDS011;63641;46.526;24.612;2023-09-07T11:55:32;3.38;;;2.50;;
75061;SDS011;63641;46.526;24.612;2023-09-07T11:58:03;3.17;;;2.75;;
75061;SDS011;63641;46.526;24.612;2023-09-07T12:00:31;4.07;;;2.92;;
75061;SDS011;63641;46.526;24.612;2023-09-07T12:02:58;3.30;;;2.75;;
75061;SDS011;63641;46.526;24.612;2023-09-07T12:05:26;3.38;;;2.72;;
75061;SDS011;63641;46.526;24.612;2023-09-07T12:07:53;7.15;;;3.00;;
75061;SDS011;63641;46.526;24.612;2023-09-07T12:10:20;3.13;;;2.70;;
75061;SDS011;63641;46.526;24.612;2023-09-07T12:12:47;3.13;;;2.75;;
75061;SDS011;63641;46.526;24.612;2023-09-07T12:15:13;2.90;;;2.65;;
75061;SDS011;63641;46.526;24.612;2023-09-07T12:17:41;3.85;;;2.67;;
75061;SDS011;63641;46.526;24.612;2023-09-07T12:20:08;4.05;;;2.75;;
75061;SDS011;63641;46.526;24.612;2023-09-07T12:22:37;3.78;;;2.78;;
75061;SDS011;63641;46.526;24.612;2023-09-07T12:25:04;5.15;;;2.90;;
75061;SDS011;63641;46.526;24.612;2023-09-07T12:27:41;2.97;;;2.53;;
75061;SDS011;63641;46.526;24.612;2023-09-07T12:30:20;6.07;;;2.60;;
75061;SDS011;63641;46.526;24.612;2023-09-07T12:32:49;2.58;;;2.38;;
75061;SDS011;63641;46.526;24.612;2023-09-07T12:35:17;3.20;;;2.75;;
75061;SDS011;63641;46.526;24.612;2023-09-07T12:37:44;3.40;;;2.78;;
75061;SDS011;63641;46.526;24.612;2023-09-07T12:40:10;3.25;;;2.60;;
75061;SDS011;63641;46.526;24.612;2023-09-07T12:42:39;4.30;;;2.50;;
75061;SDS011;63641;46.526;24.612;2023-09-07T12:45:11;3.35;;;2.55;;
75061;SDS011;63641;46.526;24.612;2023-09-07T12:47:38;3.78;;;2.72;;
75061;SDS011;63641;46.526;24.612;2023-09-07T12:50:06;3.22;;;2.42;;
75061;SDS011;63641;46.526;24.612;2023-09-07T12:52:33;3.08;;;2.78;;
75061;SDS011;63641;46.526;24.612;2023-09-07T12:55:04;4.85;;;2.70;;
75061;SDS011;63641;46.526;24.612;2023-09-07T12:57:32;2.80;;;2.60;;
75061;SDS011;63641;46.526;24.612;2023-09-07T12:59:59;2.67;;;2.42;;
75061;SDS011;63641;46.526;24.612;2023-09-07T13:02:26;3.10;;;2.70;;
75061;SDS011;63641;46.526;24.612;2023-09-07T13:04:54;3.42;;;2.40;;
75061;SDS011;63641;46.526;24.612;2023-09-07T13:07:24;2.97;;;2.67;;
75061;SDS011;63641;46.526;24.612;2023-09-07T13:09:50;3.40;;;2.83;;
75061;SDS011;63641;46.526;24.612;2023-09-07T13:12:17;2.75;;;2.40;;
75061;SDS011;63641;46.526;24.612;2023-09-07T13:14:44;2.90;;;2.53;;
75061;SDS011;63641;46.526;24.612;2023-09-07T13:17:12;4.22;;;2.75;;
75061;SDS011;63641;46.526;24.612;2023-09-07T13:19:42;4.18;;;3.13;;
75061;SDS011;63641;46.526;24.612;2023-09-07T13:22:10;3.53;;;2.65;;
75061;SDS011;63641;46.526;24.612;2023-09-07T13:24:36;3.42;;;2.83;;
75061;SDS011;63641;46.526;24.612;2023-09-07T13:27:03;3.42;;;2.80;;
75061;SDS011;63641;46.526;24.612;2023-09-07T13:29:33;3.85;;;2.80;;
75061;SDS011;63641;46.526;24.612;2023-09-07T13:32:00;3.05;;;2.75;;
75061;SDS011;63641;46.526;24.612;2023-09-07T13:34:27;3.10;;;2.80;;
75061;SDS011;63641;46.526;24.612;2023-09-07T13:36:54;3.38;;;3.08;;
75061;SDS011;63641;46.526;24.612;2023-09-07T13:39:21;3.50;;;3.20;;
75061;SDS011;63641;46.526;24.612;2023-09-07T13:41:48;3.83;;;2.80;;
75061;SDS011;63641;46.526;24.612;2023-09-07T13:44:15;4.00;;;2.80;;
75061;SDS011;63641;46.526;24.612;2023-09-07T13:46:43;3.25;;;2.95;;
75061;SDS011;63641;46.526;24.612;2023-09-07T13:49:11;3.10;;;2.78;;
75061;SDS011;63641;46.526;24.612;2023-09-07T13:51:39;2.83;;;2.63;;
75061;SDS011;63641;46.526;24.612;2023-09-07T13:54:07;2.83;;;2.53;;
75061;SDS011;63641;46.526;24.612;2023-09-07T13:56:35;3.90;;;2.78;;
75061;SDS011;63641;46.526;24.612;2023-09-07T13:59:06;3.40;;;3.10;;
75061;SDS011;63641;46.526;24.612;2023-09-07T14:01:32;3.78;;;2.65;;
75061;SDS011;63641;46.526;24.612;2023-09-07T14:03:59;4.35;;;2.50;;
75061;SDS011;63641;46.526;24.612;2023-09-07T14:06:26;3.65;;;2.83;;
75061;SDS011;63641;46.526;24.612;2023-09-07T14:08:53;4.57;;;3.25;;
75061;SDS011;63641;46.526;24.612;2023-09-07T14:11:20;4.15;;;2.92;;
75061;SDS011;63641;46.526;24.612;2023-09-07T14:13:47;3.78;;;3.47;;
75061;SDS011;63641;46.526;24.612;2023-09-07T14:16:18;4.80;;;2.95;;
75061;SDS011;63641;46.526;24.612;2023-09-07T14:18:46;5.32;;;3.17;;
75061;SDS011;63641;46.526;24.612;2023-09-07T14:21:14;3.40;;;3.10;;
75061;SDS011;63641;46.526;24.612;2023-09-07T14:23:41;3.15;;;2.50;;
75061;SDS011;63641;46.526;24.612;2023-09-07T14:26:12;3.10;;;2.80;;
75061;SDS011;63641;46.526;24.612;2023-09-07T14:28:38;3.85;;;3.00;;
75061;SDS011;63641;46.526;24.612;2023-09-07T14:31:06;3.33;;;2.97;;
75061;SDS011;63641;46.526;24.612;2023-09-07T14:33:34;5.15;;;3.00;;
75061;SDS011;63641;46.526;24.612;2023-09-07T14:36:05;3.92;;;2.90;;
75061;SDS011;63641;46.526;24.612;2023-09-07T14:38:33;3.42;;;3.10;;
75061;SDS011;63641;46.526;24.612;2023-09-07T14:41:07;5.35;;;3.00;;
75061;SDS011;63641;46.526;24.612;2023-09-07T14:43:37;3.25;;;2.92;;
75061;SDS011;63641;46.526;24.612;2023-09-07T14:46:04;6.85;;;3.25;;